createdAt,value
2018-01-10T00:02:26.329Z,94.10
2018-01-10T00:04:54.739Z,93.90
2018-01-10T00:07:22.345Z,93.90
2018-01-10T00:09:49.966Z,93.90
2018-01-10T00:12:17.563Z,93.50
2018-01-10T00:14:45.178Z,93.20
2018-01-10T00:17:12.813Z,93.40
2018-01-10T00:19:41.195Z,93.30
2018-01-10T00:22:08.793Z,93.30
2018-01-10T00:24:36.408Z,92.90
2018-01-10T00:27:04.793Z,93.10
2018-01-10T00:29:33.190Z,93.00
2018-01-10T00:32:00.766Z,93.00
2018-01-10T00:34:28.377Z,93.10
2018-01-10T00:36:56.004Z,93.00
2018-01-10T00:39:23.700Z,92.80
2018-01-10T00:41:52.082Z,92.50
2018-01-10T00:44:20.445Z,92.50
2018-01-10T00:46:48.387Z,92.50
2018-01-10T00:49:16.076Z,92.30
2018-01-10T00:51:43.683Z,92.30
2018-01-10T00:54:11.318Z,92.60
2018-01-10T00:56:39.690Z,92.90
2018-01-10T00:59:08.085Z,92.70
2018-01-10T01:01:35.693Z,92.70
2018-01-10T01:04:03.351Z,92.90
2018-01-10T01:06:30.943Z,92.70
2018-01-10T01:08:58.551Z,92.70
2018-01-10T01:11:26.159Z,92.80
2018-01-10T01:13:53.774Z,92.80
2018-01-10T01:16:21.370Z,93.00
2018-01-10T01:18:49.006Z,93.00
2018-01-10T01:21:16.604Z,93.00
2018-01-10T01:26:18.206Z,94.00
2018-01-10T01:28:45.810Z,93.90
2018-01-10T01:31:13.397Z,93.80
2018-01-10T01:33:41.004Z,93.70
2018-01-10T01:36:08.635Z,93.80
2018-01-10T01:38:36.252Z,93.70
2018-01-10T01:41:03.871Z,93.30
2018-01-10T01:43:31.480Z,92.90
2018-01-10T01:45:59.090Z,93.50
2018-01-10T01:48:26.678Z,93.80
2018-01-10T01:50:54.894Z,93.80
2018-01-10T01:53:22.514Z,93.30
2018-01-10T01:55:50.118Z,93.50
2018-01-10T01:58:17.773Z,93.10
2018-01-10T02:00:45.436Z,93.10
2018-01-10T02:03:13.045Z,93.00
2018-01-10T02:05:40.673Z,92.80
2018-01-10T02:08:09.136Z,93.10
2018-01-10T02:10:36.737Z,93.00
2018-01-10T02:13:04.362Z,93.00
2018-01-10T02:15:31.972Z,92.90
2018-01-10T02:17:59.599Z,93.00
2018-01-10T02:20:27.945Z,92.90
2018-01-10T02:22:55.569Z,92.80
2018-01-10T02:25:23.141Z,92.80
2018-01-10T02:27:50.738Z,92.80
2018-01-10T02:30:18.325Z,92.90
2018-01-10T02:32:46.729Z,93.10
2018-01-10T02:35:14.344Z,93.00
2018-01-10T02:37:41.997Z,93.20
2018-01-10T02:40:09.595Z,93.20
2018-01-10T02:42:38.947Z,93.10
2018-01-10T02:45:06.626Z,92.90
2018-01-10T02:47:34.280Z,92.70
2018-01-10T02:50:01.890Z,92.90
2018-01-10T02:52:29.503Z,92.80
2018-01-10T02:54:57.114Z,93.10
2018-01-10T02:57:24.737Z,93.00
2018-01-10T02:59:53.092Z,93.90
2018-01-10T03:02:20.706Z,93.90
2018-01-10T03:04:48.337Z,93.70
2018-01-10T03:07:16.734Z,93.50
2018-01-10T03:09:45.124Z,93.60
2018-01-10T03:12:12.745Z,93.60
2018-01-10T03:14:40.326Z,93.70
2018-01-10T03:17:08.697Z,93.50
2018-01-10T03:19:37.069Z,93.40
2018-01-10T03:22:04.702Z,93.40
2018-01-10T03:24:32.299Z,93.20
2018-01-10T03:27:00.669Z,93.10
2018-01-10T03:29:28.301Z,93.10
2018-01-10T03:31:55.881Z,93.00
2018-01-10T03:34:23.493Z,92.90
2018-01-10T03:36:51.077Z,92.80
2018-01-10T03:39:18.714Z,92.80
2018-01-10T03:41:46.313Z,92.80
2018-01-10T03:44:13.913Z,93.10
2018-01-10T03:46:42.283Z,93.00
2018-01-10T03:49:10.653Z,93.10
2018-01-10T03:51:39.029Z,93.30
2018-01-10T03:54:07.385Z,93.00
2018-01-10T03:56:35.007Z,93.00
2018-01-10T03:59:02.701Z,93.20
2018-01-10T04:01:30.296Z,93.00
2018-01-10T04:03:58.695Z,93.20
2018-01-10T04:06:26.313Z,93.20
2018-01-10T04:08:53.894Z,93.30
2018-01-10T04:11:22.267Z,92.80
2018-01-10T04:13:49.898Z,92.80
2018-01-10T04:16:17.518Z,93.00
2018-01-10T04:18:45.101Z,93.00
2018-01-10T04:21:12.741Z,92.90
2018-01-10T04:23:40.350Z,93.10
2018-01-10T04:26:07.964Z,93.00
2018-01-10T04:28:35.655Z,92.80
2018-01-10T04:31:03.238Z,92.80
2018-01-10T04:33:30.855Z,92.70
2018-01-10T04:35:58.549Z,92.70
2018-01-10T04:38:26.172Z,92.90
2018-01-10T04:40:54.050Z,92.70
2018-01-10T04:43:21.649Z,92.80
2018-01-10T04:45:49.244Z,92.90
2018-01-10T04:48:17.598Z,93.30
2018-01-10T04:50:45.202Z,93.30
2018-01-10T04:53:12.858Z,93.20
2018-01-10T04:55:40.450Z,93.10
2018-01-10T04:58:08.058Z,93.30
2018-01-10T05:00:36.446Z,93.40
2018-01-10T05:03:04.041Z,93.40
2018-01-10T05:05:31.653Z,93.30
2018-01-10T05:08:00.968Z,93.50
2018-01-10T05:10:28.577Z,93.50
2018-01-10T05:12:56.233Z,93.30
2018-01-10T05:15:23.841Z,93.30
2018-01-10T05:17:52.201Z,93.30
2018-01-10T05:20:19.810Z,93.30
2018-01-10T05:22:47.441Z,93.30
2018-01-10T05:25:15.824Z,93.60
2018-01-10T05:27:44.177Z,93.60
2018-01-10T05:30:11.867Z,93.50
2018-01-10T05:32:39.401Z,93.80
2018-01-10T05:35:07.125Z,93.80
2018-01-10T05:37:34.705Z,93.70
2018-01-10T05:40:02.329Z,93.80
2018-01-10T05:42:29.949Z,93.60
2018-01-10T05:44:57.564Z,93.50
2018-01-10T05:47:25.150Z,93.70
2018-01-10T05:49:52.749Z,93.70
2018-01-10T05:52:21.100Z,93.80
2018-01-10T05:54:48.708Z,93.80
2018-01-10T05:57:16.359Z,93.50
2018-01-10T05:59:43.948Z,93.50
2018-01-10T06:02:12.318Z,93.50
2018-01-10T06:04:40.181Z,93.50
2018-01-10T06:07:07.834Z,93.70
2018-01-10T06:09:35.420Z,93.40
2018-01-10T06:12:06.683Z,93.70
2018-01-10T06:14:34.275Z,93.80
2018-01-10T06:17:02.620Z,94.20
2018-01-10T06:19:30.290Z,94.20
2018-01-10T06:21:57.893Z,94.10
2018-01-10T06:24:25.474Z,93.90
2018-01-10T06:26:53.074Z,94.10
2018-01-10T06:29:20.648Z,94.50
2018-01-10T06:31:49.022Z,94.50
2018-01-10T06:34:17.368Z,94.10
2018-01-10T06:36:44.973Z,94.10
2018-01-10T06:39:13.343Z,94.70
2018-01-10T06:41:41.682Z,94.70
2018-01-10T06:44:09.284Z,94.80
2018-01-10T06:46:37.596Z,94.50
2018-01-10T06:49:05.208Z,94.50
2018-01-10T06:51:32.805Z,94.40
2018-01-10T06:54:00.430Z,94.70
2018-01-10T06:56:28.061Z,94.40
2018-01-10T06:58:55.645Z,94.40
2018-01-10T07:01:23.247Z,94.40
2018-01-10T07:03:50.853Z,94.50
2018-01-10T07:06:18.454Z,94.40
2018-01-10T07:08:46.859Z,94.20
2018-01-10T07:11:15.212Z,94.10
2018-01-10T07:13:43.569Z,94.00
2018-01-10T07:16:11.189Z,94.00
2018-01-10T07:18:38.805Z,94.00
2018-01-10T07:21:07.156Z,94.00
2018-01-10T07:23:34.780Z,93.90
2018-01-10T07:26:02.378Z,94.10
2018-01-10T07:28:29.999Z,94.20
2018-01-10T07:30:57.629Z,94.10
2018-01-10T07:33:25.238Z,94.10
2018-01-10T07:35:52.893Z,94.10
2018-01-10T07:38:20.457Z,94.00
2018-01-10T07:40:48.821Z,94.20
2018-01-10T07:43:16.420Z,94.20
2018-01-10T07:45:44.015Z,94.20
2018-01-10T07:48:11.677Z,94.30
2018-01-10T07:50:40.995Z,94.30
2018-01-10T07:53:08.618Z,94.30
2018-01-10T07:55:36.994Z,94.10
2018-01-10T07:58:04.580Z,94.10
2018-01-10T08:00:32.193Z,94.10
2018-01-10T08:02:59.799Z,93.90
2018-01-10T08:05:27.401Z,94.10
2018-01-10T08:07:54.988Z,94.00
2018-01-10T08:10:22.594Z,94.10
2018-01-10T08:12:50.177Z,94.30
2018-01-10T08:15:17.780Z,94.10
2018-01-10T08:17:46.145Z,94.10
2018-01-10T08:20:13.784Z,94.10
2018-01-10T08:22:41.404Z,94.10
2018-01-10T08:25:09.044Z,94.00
2018-01-10T08:27:37.385Z,94.00
2018-01-10T08:30:04.994Z,94.00
2018-01-10T08:32:32.597Z,93.70
2018-01-10T08:35:00.217Z,93.80
2018-01-10T08:37:28.594Z,93.50
2018-01-10T08:39:56.960Z,93.60
2018-01-10T08:42:25.327Z,93.80
2018-01-10T08:44:52.916Z,93.70
2018-01-10T08:47:20.522Z,93.70
2018-01-10T08:49:48.109Z,94.10
2018-01-10T08:52:15.714Z,93.80
2018-01-10T08:54:43.291Z,94.00
2018-01-10T08:57:10.924Z,93.80
2018-01-10T08:59:38.585Z,93.80
2018-01-10T09:02:06.201Z,94.10
2018-01-10T09:04:33.794Z,94.10
2018-01-10T09:07:01.401Z,94.10
2018-01-10T09:09:30.827Z,94.50
2018-01-10T09:11:58.465Z,94.50
2018-01-10T09:14:26.053Z,94.20
2018-01-10T09:16:53.655Z,94.30
2018-01-10T09:19:21.229Z,94.10
2018-01-10T09:21:50.856Z,94.20
2018-01-10T09:24:18.525Z,94.30
2018-01-10T09:26:46.142Z,94.10
2018-01-10T09:29:13.740Z,94.00
2018-01-10T09:31:41.357Z,93.90
2018-01-10T09:34:08.954Z,94.20
2018-01-10T09:36:37.351Z,94.20
2018-01-10T09:39:05.019Z,94.20
2018-01-10T09:41:32.766Z,94.00
2018-01-10T09:44:01.109Z,94.10
2018-01-10T09:46:28.713Z,94.10
2018-01-10T09:48:56.387Z,94.30
2018-01-10T09:51:24.048Z,94.30
2018-01-10T09:53:51.642Z,94.20
2018-01-10T09:56:19.282Z,94.30
2018-01-10T09:58:47.633Z,94.40
2018-01-10T10:01:15.236Z,94.40
2018-01-10T10:03:43.600Z,94.30
2018-01-10T10:06:11.974Z,94.30
2018-01-10T10:08:40.356Z,94.20
2018-01-10T10:11:08.853Z,94.20
2018-01-10T10:13:36.495Z,94.20
2018-01-10T10:16:04.117Z,94.20
2018-01-10T10:18:32.418Z,94.00
2018-01-10T10:21:00.010Z,93.60
2018-01-10T10:23:28.377Z,94.00
2018-01-10T10:25:56.749Z,93.90
2018-01-10T10:28:25.168Z,94.10
2018-01-10T10:30:52.758Z,94.10
2018-01-10T10:33:20.378Z,93.80
2018-01-10T10:35:47.977Z,94.10
2018-01-10T10:38:15.684Z,93.90
2018-01-10T10:40:44.042Z,94.00
2018-01-10T10:43:11.670Z,93.90
2018-01-10T10:45:39.263Z,94.00
2018-01-10T10:48:06.860Z,94.00
2018-01-10T10:50:34.477Z,94.10
2018-01-10T10:53:02.095Z,93.80
2018-01-10T10:55:29.721Z,93.60
2018-01-10T10:57:58.085Z,93.30
2018-01-10T11:00:27.583Z,93.60
2018-01-10T11:02:55.178Z,93.80
2018-01-10T11:05:22.801Z,93.80
2018-01-10T11:07:50.433Z,93.50
2018-01-10T11:10:18.047Z,93.40
2018-01-10T11:12:46.433Z,93.50
2018-01-10T11:15:14.798Z,93.50
2018-01-10T11:17:43.152Z,93.20
2018-01-10T11:20:11.372Z,93.20
2018-01-10T11:22:38.958Z,93.80
2018-01-10T11:25:06.581Z,94.00
2018-01-10T11:27:34.967Z,94.10
2018-01-10T11:30:03.327Z,93.90
2018-01-10T11:32:31.130Z,93.90
2018-01-10T11:34:58.777Z,93.70
2018-01-10T11:37:26.385Z,93.90
2018-01-10T11:39:53.986Z,93.80
2018-01-10T11:42:22.359Z,93.80
2018-01-10T11:44:50.702Z,93.20
2018-01-10T11:47:18.306Z,93.20
2018-01-10T11:49:46.707Z,93.30
2018-01-10T11:52:14.297Z,93.30
2018-01-10T11:54:42.039Z,92.90
2018-01-10T11:57:09.622Z,92.00
2018-01-10T11:59:37.226Z,91.90
2018-01-10T12:02:05.636Z,92.10
2018-01-10T12:04:33.268Z,92.10
2018-01-10T12:07:01.618Z,91.70
2018-01-10T12:09:29.215Z,91.70
2018-01-10T12:11:56.833Z,91.80
2018-01-10T12:14:24.446Z,91.80
2018-01-10T12:16:52.044Z,92.20
2018-01-10T12:19:19.629Z,91.80
2018-01-10T12:21:48.005Z,91.60
2018-01-10T12:24:16.381Z,91.60
2018-01-10T12:26:44.006Z,91.60
2018-01-10T12:29:11.587Z,91.20
2018-01-10T12:31:39.198Z,90.90
2018-01-10T12:34:06.789Z,91.20
2018-01-10T12:36:34.395Z,91.20
2018-01-10T12:39:02.754Z,90.70
2018-01-10T12:41:30.365Z,90.70
2018-01-10T12:43:57.951Z,90.90
2018-01-10T12:46:25.545Z,90.70
2018-01-10T12:48:53.143Z,90.90
2018-01-10T12:51:20.766Z,91.00
2018-01-10T12:53:48.434Z,91.20
2018-01-10T12:56:16.801Z,91.30
2018-01-10T12:58:44.401Z,91.30
2018-01-10T13:01:12.012Z,91.40
2018-01-10T13:03:39.612Z,91.10
2018-01-10T13:06:07.309Z,91.20
2018-01-10T13:08:34.922Z,91.20
2018-01-10T13:11:03.273Z,91.20
2018-01-10T13:13:31.100Z,91.20
2018-01-10T13:15:58.735Z,90.90
2018-01-10T13:18:27.109Z,91.00
2018-01-10T13:20:55.473Z,91.20
2018-01-10T13:23:23.075Z,91.20
2018-01-10T13:25:50.672Z,91.40
2018-01-10T13:28:18.288Z,91.20
2018-01-10T13:30:45.909Z,91.30
2018-01-10T13:33:13.517Z,91.30
2018-01-10T13:35:41.113Z,91.60
2018-01-10T13:38:08.738Z,91.50
2018-01-10T13:40:36.313Z,91.50
2018-01-10T13:43:03.930Z,91.70
2018-01-10T13:45:32.273Z,91.40
2018-01-10T13:47:59.870Z,91.40
2018-01-10T13:50:28.238Z,91.50
2018-01-10T13:52:56.613Z,92.00
2018-01-10T13:55:24.205Z,91.70
2018-01-10T13:57:51.814Z,91.60
2018-01-10T14:00:19.444Z,91.50
2018-01-10T14:02:47.038Z,91.50
2018-01-10T14:05:14.660Z,91.50
2018-01-10T14:07:42.246Z,91.80
2018-01-10T14:10:09.911Z,91.70
2018-01-10T14:12:37.499Z,91.60
2018-01-10T14:15:05.885Z,91.40
2018-01-10T14:17:34.254Z,91.50
2018-01-10T14:20:01.864Z,91.50
2018-01-10T14:22:29.445Z,91.40
2018-01-10T14:24:57.810Z,91.40
2018-01-10T14:27:25.389Z,91.40
2018-01-10T14:29:53.023Z,91.60
2018-01-10T14:32:20.637Z,91.50
2018-01-10T14:34:48.998Z,91.80
2018-01-10T14:37:16.621Z,91.80
2018-01-10T14:39:44.253Z,91.60
2018-01-10T14:42:12.642Z,91.50
2018-01-10T14:44:40.241Z,91.50
2018-01-10T14:47:08.060Z,91.50
2018-01-10T14:49:36.431Z,91.60
2018-01-10T14:52:04.794Z,91.80
2018-01-10T14:54:33.168Z,92.20
2018-01-10T14:57:00.778Z,91.90
2018-01-10T14:59:28.394Z,91.90
2018-01-10T15:01:56.022Z,92.10
2018-01-10T15:04:23.645Z,92.20
2018-01-10T15:06:51.229Z,91.90
2018-01-10T15:09:18.843Z,92.00
2018-01-10T15:11:47.213Z,92.10
2018-01-10T15:14:15.616Z,92.00
2018-01-10T15:16:43.201Z,92.00
2018-01-10T15:19:10.802Z,92.10
2018-01-10T15:21:38.417Z,92.10
2018-01-10T15:24:06.027Z,92.30
2018-01-10T15:26:33.681Z,92.50
2018-01-10T15:29:01.310Z,92.40
2018-01-10T15:31:28.913Z,92.50
2018-01-10T15:33:56.496Z,92.50
2018-01-10T15:36:24.953Z,92.80
2018-01-10T15:38:52.540Z,92.80
2018-01-10T15:41:20.223Z,92.90
2018-01-10T15:43:47.818Z,93.00
2018-01-10T15:46:15.420Z,93.00
2018-01-10T15:48:43.797Z,93.30
2018-01-10T15:51:12.223Z,93.30
2018-01-10T15:53:39.812Z,93.30
2018-01-10T15:56:07.440Z,93.50
2018-01-10T15:58:35.789Z,93.40
2018-01-10T16:01:03.550Z,93.40
2018-01-10T16:03:31.137Z,93.40
2018-01-10T16:05:59.517Z,93.40
2018-01-10T16:08:27.129Z,93.20
2018-01-10T16:10:55.481Z,93.10
2018-01-10T16:13:24.029Z,93.10
2018-01-10T16:15:51.641Z,93.10
2018-01-10T16:18:19.245Z,93.30
2018-01-10T16:20:46.857Z,93.40
2018-01-10T16:23:14.489Z,93.40
2018-01-10T16:25:42.130Z,93.40
2018-01-10T16:28:09.725Z,93.60
2018-01-10T16:30:37.319Z,93.90
2018-01-10T16:33:05.695Z,93.60
2018-01-10T16:35:34.085Z,93.70
2018-01-10T16:38:01.705Z,93.70
2018-01-10T16:40:29.285Z,93.90
2018-01-10T16:42:57.653Z,93.80
2018-01-10T16:45:25.271Z,93.80
2018-01-10T16:47:52.859Z,93.60
2018-01-10T16:50:20.470Z,93.70
2018-01-10T16:52:48.056Z,94.00
2018-01-10T16:55:15.671Z,94.00
2018-01-10T16:57:44.065Z,94.10
2018-01-10T17:00:11.677Z,94.10
2018-01-10T17:02:39.314Z,94.40
2018-01-10T17:05:06.919Z,94.80
2018-01-10T17:07:34.526Z,94.40
2018-01-10T17:10:02.109Z,94.30
2018-01-10T17:12:29.717Z,94.60
2018-01-10T17:14:58.113Z,94.50
2018-01-10T17:17:25.748Z,94.40
2018-01-10T17:19:54.128Z,94.30
2018-01-10T17:22:22.515Z,94.70
2018-01-10T17:24:50.901Z,94.60
2018-01-10T17:27:18.513Z,94.50
2018-01-10T17:29:46.129Z,94.50
2018-01-10T17:32:13.722Z,94.50
2018-01-10T17:34:41.319Z,94.40
2018-01-10T17:37:08.937Z,94.30
2018-01-10T17:39:36.541Z,94.00
2018-01-10T17:42:04.184Z,94.10
2018-01-10T17:44:31.802Z,94.40
2018-01-10T17:46:59.424Z,94.40
2018-01-10T17:49:27.013Z,94.70
2018-01-10T17:51:54.646Z,94.80
2018-01-10T17:54:23.029Z,94.60
2018-01-10T17:56:51.389Z,94.50
2018-01-10T17:59:19.007Z,94.50
2018-01-10T18:01:46.617Z,94.60
2018-01-10T18:04:14.242Z,94.40
2018-01-10T18:06:41.870Z,94.40
2018-01-10T18:09:09.464Z,94.20
2018-01-10T18:11:37.142Z,93.90
2018-01-10T18:14:05.499Z,94.10
2018-01-10T18:16:33.082Z,94.20
2018-01-10T18:19:00.697Z,93.90
2018-01-10T18:21:28.308Z,94.10
2018-01-10T18:23:55.971Z,94.00
2018-01-10T18:26:23.660Z,94.10
2018-01-10T18:28:52.041Z,93.90
2018-01-10T18:31:20.422Z,93.90
2018-01-10T18:33:48.814Z,94.10
2018-01-10T18:36:16.417Z,94.10
2018-01-10T18:38:44.858Z,94.20
2018-01-10T18:41:12.470Z,94.30
2018-01-10T18:43:40.109Z,94.10
2018-01-10T18:46:07.726Z,93.90
2018-01-10T18:48:36.081Z,93.70
2018-01-10T18:51:03.706Z,93.70
2018-01-10T18:53:31.320Z,93.80
2018-01-10T18:55:59.728Z,94.10
2018-01-10T18:58:27.352Z,94.10
2018-01-10T19:00:54.965Z,94.00
2018-01-10T19:03:22.875Z,94.40
2018-01-10T19:05:51.247Z,94.50
2018-01-10T19:08:18.997Z,94.20
2018-01-10T19:10:46.626Z,94.40
2018-01-10T19:13:14.216Z,94.40
2018-01-10T19:15:41.817Z,94.30
2018-01-10T19:18:10.200Z,94.40
2018-01-10T19:20:37.781Z,94.40
2018-01-10T19:23:05.956Z,94.60
2018-01-10T19:25:33.573Z,94.50
2018-01-10T19:28:01.195Z,94.40
2018-01-10T19:30:29.662Z,94.30
2018-01-10T19:32:57.241Z,94.30
2018-01-10T19:35:25.007Z,94.30
2018-01-10T19:37:52.630Z,94.20
2018-01-10T19:40:20.270Z,94.10
2018-01-10T19:42:48.633Z,94.20
2018-01-10T19:45:16.293Z,94.20
2018-01-10T19:47:43.993Z,94.30
2018-01-10T19:50:11.606Z,94.50
2018-01-10T19:52:39.263Z,94.10
2018-01-10T19:55:06.878Z,94.20
2018-01-10T19:57:34.507Z,94.70
2018-01-10T20:00:03.081Z,94.90
2018-01-10T20:02:30.765Z,94.90
2018-01-10T20:04:58.319Z,94.70
2018-01-10T20:07:26.690Z,94.80
2018-01-10T20:09:55.064Z,95.00
2018-01-10T20:12:22.706Z,94.70
2018-01-10T20:14:50.287Z,94.90
2018-01-10T20:17:17.899Z,94.90
2018-01-10T20:19:45.537Z,95.20
2018-01-10T20:22:13.141Z,94.90
2018-01-10T20:24:40.758Z,94.80
2018-01-10T20:27:09.137Z,94.50
2018-01-10T20:29:36.790Z,94.40
2018-01-10T20:32:05.151Z,94.20
2018-01-10T20:34:33.549Z,94.50
2018-01-10T20:37:01.198Z,94.40
2018-01-10T20:39:29.587Z,94.40
2018-01-10T20:41:57.213Z,94.40
2018-01-10T20:44:26.352Z,94.60
2018-01-10T20:46:53.961Z,94.40
2018-01-10T20:49:21.882Z,94.20
2018-01-10T20:51:49.517Z,94.50
2018-01-10T20:54:17.958Z,94.90
2018-01-10T20:56:45.606Z,94.80
2018-01-10T20:59:13.193Z,94.80
2018-01-10T21:01:40.789Z,94.70
2018-01-10T21:04:09.238Z,94.60
2018-01-10T21:06:37.739Z,94.60
2018-01-10T21:09:06.163Z,94.70
2018-01-10T21:11:33.774Z,94.60
2018-01-10T21:14:01.371Z,94.60
2018-01-10T21:16:28.950Z,94.70
2018-01-10T21:18:56.554Z,94.60
2018-01-10T21:21:24.177Z,94.50
2018-01-10T21:23:51.802Z,94.50
2018-01-10T21:26:19.406Z,94.60
2018-01-10T21:28:47.823Z,94.50
2018-01-10T21:31:15.406Z,94.50
2018-01-10T21:33:43.054Z,94.50
2018-01-10T21:36:11.425Z,94.70
2018-01-10T21:38:39.803Z,94.70
2018-01-10T21:41:08.171Z,94.70
2018-01-10T21:43:36.494Z,94.70
2018-01-10T21:46:04.090Z,94.50
2018-01-10T21:48:31.715Z,94.70
2018-01-10T21:50:59.329Z,94.40
2018-01-10T21:53:26.999Z,94.70
2018-01-10T21:55:55.362Z,94.70
2018-01-10T21:58:23.749Z,94.70
2018-01-10T22:00:51.422Z,94.70
2018-01-10T22:03:19.796Z,94.60
2018-01-10T22:05:48.289Z,94.60
2018-01-10T22:08:16.653Z,94.70
2018-01-10T22:10:44.253Z,94.70
2018-01-10T22:13:11.881Z,94.60
2018-01-10T22:15:40.297Z,94.40
2018-01-10T22:18:07.897Z,94.40
2018-01-10T22:20:35.867Z,94.50
2018-01-10T22:23:03.474Z,94.40
2018-01-10T22:25:31.084Z,94.40
2018-01-10T22:27:58.685Z,94.40
2018-01-10T22:30:26.273Z,94.60
2018-01-10T22:32:55.818Z,94.60
2018-01-10T22:35:23.416Z,94.90
2018-01-10T22:37:51.012Z,95.30
2018-01-10T22:40:18.599Z,95.30
2018-01-10T22:42:46.207Z,95.00
2018-01-10T22:45:14.769Z,95.10
2018-01-10T22:47:43.144Z,94.80
2018-01-10T22:50:11.557Z,94.60
2018-01-10T22:52:39.162Z,94.60
2018-01-10T22:55:07.549Z,94.60
2018-01-10T22:57:35.947Z,94.70
2018-01-10T23:00:04.313Z,94.40
2018-01-10T23:02:32.679Z,94.50
2018-01-10T23:05:00.562Z,94.50
2018-01-10T23:07:28.913Z,94.30
2018-01-10T23:09:56.540Z,94.30
2018-01-10T23:12:24.125Z,94.30
2018-01-10T23:14:51.725Z,94.50
2018-01-10T23:17:20.109Z,94.90
2018-01-10T23:19:48.474Z,94.90
2018-01-10T23:22:16.874Z,94.60
2018-01-10T23:24:44.461Z,94.60
2018-01-10T23:27:12.070Z,94.30
2018-01-10T23:29:40.473Z,94.20
2018-01-10T23:32:08.106Z,94.20
2018-01-10T23:34:35.700Z,94.30
2018-01-10T23:37:03.312Z,94.20
2018-01-10T23:39:31.150Z,94.50
2018-01-10T23:41:58.755Z,94.30
2018-01-10T23:44:26.349Z,94.10
2018-01-10T23:46:53.962Z,94.40
2018-01-10T23:49:21.575Z,94.20
2018-01-10T23:51:49.198Z,94.10
2018-01-10T23:54:16.777Z,94.00
2018-01-10T23:56:45.177Z,93.70
2018-01-10T23:59:12.800Z,93.60
